Time;durP1;ratioP1;P1;durP2;ratioP2;P2;SDS_P1;SDS_P2;PMS_P1;PMS_P2;Temp;Humidity;BMP_temperature;BMP_pressure;BME280_temperature;BME280_humidity;BME280_pressure;Samples;Min_cycle;Max_cycle;Signal;HPM_P1;HPM_P2
2021/08/01 00:01:24;;;;;;;5.43;2.72;;;15.60;99.90;;;14.47;100.00;100451.69;4964476;28;20063;-76
2021/08/01 00:03:52;;;;;;;5.35;2.60;;;15.60;99.90;;;14.43;100.00;100450.19;4984967;28;20472;-76
2021/08/01 00:06:18;;;;;;;12.13;3.15;;;15.50;99.90;;;14.33;100.00;100457.91;4957323;28;20076;-77
2021/08/01 00:08:45;;;;;;;6.45;2.90;;;15.40;99.90;;;14.30;100.00;100483.75;4950122;28;20068;-77
2021/08/01 00:11:15;;;;;;;8.43;3.08;;;15.40;99.90;;;14.25;100.00;100491.13;4952049;28;20483;-77
2021/08/01 00:13:40;;;;;;;13.20;3.30;;;15.30;99.90;;;14.29;100.00;100521.78;4957401;28;20121;-77
2021/08/01 00:16:07;;;;;;;8.75;2.95;;;15.30;99.90;;;14.26;100.00;100564.34;4950651;28;20075;-77
2021/08/01 00:18:33;;;;;;;5.82;3.17;;;15.30;99.90;;;14.21;100.00;100569.06;4935578;28;20042;-76
2021/08/01 00:20:59;;;;;;;7.07;2.95;;;15.30;99.90;;;14.17;100.00;100592.28;4950696;28;21057;-77
2021/08/01 00:23:25;;;;;;;8.48;3.20;;;15.30;99.90;;;14.18;100.00;100627.53;4952762;28;20061;-77
2021/08/01 00:25:51;;;;;;;9.85;3.42;;;15.30;99.90;;;14.18;100.00;100627.53;4980670;28;20104;-76
2021/08/01 00:28:17;;;;;;;5.75;3.05;;;15.20;99.90;;;14.14;100.00;100667.44;4928974;28;20033;-77
2021/08/01 00:30:44;;;;;;;7.00;3.03;;;15.20;99.90;;;14.12;100.00;100665.84;4928276;28;20548;-78
2021/08/01 00:33:10;;;;;;;8.80;3.15;;;15.20;99.90;;;14.08;100.00;100706.69;4943291;28;20148;-76
2021/08/01 00:35:36;;;;;;;5.72;3.22;;;15.20;99.90;;;14.07;100.00;100687.31;4967504;28;20073;-77
2021/08/01 00:38:02;;;;;;;4.93;3.00;;;15.20;99.90;;;14.08;100.00;100733.16;4950524;28;20058;-77
2021/08/01 00:40:28;;;;;;;6.95;3.08;;;15.20;99.90;;;14.08;100.00;100770.22;4935789;28;20437;-77
2021/08/01 00:42:54;;;;;;;6.55;3.13;;;15.20;99.90;;;14.04;100.00;100737.81;4935849;28;20057;-77
2021/08/01 00:45:20;;;;;;;7.68;3.58;;;15.10;99.90;;;14.01;100.00;100756.50;4966407;28;20491;-77
2021/08/01 00:47:46;;;;;;;8.50;3.10;;;15.10;99.90;;;13.97;100.00;100772.69;4930198;28;20118;-77
2021/08/01 00:50:14;;;;;;;7.45;3.25;;;15.10;99.90;;;13.92;100.00;100751.78;4962345;28;20030;-76
2021/08/01 00:52:40;;;;;;;9.90;3.63;;;15.10;99.90;;;13.95;100.00;100759.53;4972135;28;20049;-77
2021/08/01 00:55:09;;;;;;;5.57;3.20;;;15.10;99.90;;;13.94;100.00;100848.69;4920471;28;20513;-77
2021/08/01 00:57:36;;;;;;;5.97;3.70;;;15.00;99.90;;;13.92;100.00;100877.03;4950607;28;20070;-78
2021/08/01 01:00:26;;;;;;;15.95;3.65;;;15.00;99.90;;;13.89;100.00;100892.25;4966435;28;20061;-77
2021/08/01 01:02:57;;;;;;;7.00;3.63;;;15.00;99.90;;;13.89;100.00;100913.44;4968102;28;20479;-77
2021/08/01 01:05:36;;;;;;;7.95;3.97;;;15.00;99.90;;;13.90;100.00;100920.44;4986959;28;20034;-77
2021/08/01 01:08:55;;;;;;;9.32;3.95;;;15.00;99.90;;;13.94;100.00;100927.25;4978287;28;20054;-76
2021/08/01 01:11:29;;;;;;;12.48;3.92;;;15.10;99.90;;;14.01;100.00;100956.88;4952421;28;20060;-77
2021/08/01 01:13:56;;;;;;;7.38;3.97;;;15.20;99.90;;;14.11;100.00;100992.47;5004020;28;20045;-77
2021/08/01 01:16:25;;;;;;;8.63;4.00;;;15.20;99.90;;;14.19;100.00;100986.72;4983111;28;20068;-77
2021/08/01 01:18:57;;;;;;;6.22;3.50;;;15.40;99.90;;;14.26;100.00;100935.13;4987392;28;20056;-78
2021/08/01 01:21:55;;;;;;;10.93;3.75;;;15.40;99.90;;;14.31;100.00;100959.53;4969073;28;20064;-77
2021/08/01 01:24:30;;;;;;;9.57;3.67;;;15.40;99.90;;;14.35;100.00;100976.97;4971348;28;20042;-77
2021/08/01 01:27:35;;;;;;;7.45;3.80;;;15.50;99.90;;;14.37;100.00;100998.91;4970523;28;20076;-77
2021/08/01 01:30:04;;;;;;;9.60;3.72;;;15.50;99.90;;;14.40;100.00;100976.69;5010818;28;20119;-77
2021/08/01 01:33:06;;;;;;;9.00;3.58;;;15.50;99.90;;;14.40;100.00;101019.91;4976471;28;20056;-77
2021/08/01 01:35:38;;;;;;;9.70;3.55;;;15.50;99.90;;;14.39;100.00;101018.22;5003776;28;20053;-77
2021/08/01 01:38:06;;;;;;;9.23;3.70;;;15.40;99.90;;;14.34;100.00;101015.84;5021885;28;20065;-76
2021/08/01 01:40:37;;;;;;;6.10;3.83;;;15.40;99.90;;;14.32;100.00;101038.06;4970529;28;20080;-77
2021/08/01 01:43:06;;;;;;;8.73;3.38;;;15.40;99.90;;;14.27;100.00;101029.53;4983434;28;20026;-77
2021/08/01 01:45:35;;;;;;;9.98;3.97;;;15.30;99.90;;;14.21;100.00;101066.94;4988644;28;20081;-77
2021/08/01 01:48:02;;;;;;;7.30;3.40;;;15.30;99.90;;;14.18;100.00;101045.94;4987296;28;20115;-77
2021/08/01 01:50:29;;;;;;;12.05;4.15;;;15.30;99.90;;;14.19;100.00;101090.88;4956247;28;20049;-77
2021/08/01 01:52:56;;;;;;;6.07;3.85;;;15.30;99.90;;;14.23;100.00;101104.78;4989721;28;20058;-77
2021/08/01 01:55:23;;;;;;;6.53;3.75;;;15.40;99.90;;;14.28;100.00;101086.88;4981602;28;20113;-76
2021/08/01 01:57:50;;;;;;;4.90;3.35;;;15.40;99.90;;;14.33;100.00;101124.53;4972873;28;20624;-77
2021/08/01 02:00:17;;;;;;;7.57;3.67;;;15.40;99.90;;;14.34;100.00;101136.81;4974129;28;20502;-77
2021/08/01 02:02:44;;;;;;;5.15;3.35;;;15.40;99.90;;;14.34;100.00;101155.38;4987475;28;20064;-77
2021/08/01 02:05:11;;;;;;;8.55;3.88;;;15.40;99.90;;;14.34;100.00;101131.53;4975231;28;20037;-76
2021/08/01 02:07:38;;;;;;;7.78;3.38;;;15.40;99.90;;;14.38;100.00;101137.50;4971253;28;20087;-76
2021/08/01 02:10:38;;;;;;;7.35;3.25;;;15.40;99.90;;;14.28;100.00;101161.03;4973695;28;20068;-76
2021/08/01 02:13:08;;;;;;;6.03;3.40;;;15.40;99.90;;;14.24;100.00;101151.53;4907906;28;20038;-77
2021/08/01 02:15:45;;;;;;;4.93;3.15;;;15.30;99.90;;;14.22;100.00;101134.88;4985776;28;20069;-77
2021/08/01 02:18:23;;;;;;;4.15;2.90;;;15.30;99.90;;;14.18;100.00;101130.69;4952354;28;20591;-77
2021/08/01 02:20:52;;;;;;;6.43;3.05;;;15.30;99.90;;;14.16;100.00;101171.34;4986242;28;20050;-77
2021/08/01 02:23:27;;;;;;;5.68;3.15;;;15.30;99.90;;;14.13;100.00;101158.28;4973199;28;20019;-77
2021/08/01 02:25:55;;;;;;;5.97;3.08;;;15.20;99.90;;;14.14;100.00;101169.72;4954444;28;20091;-77
2021/08/01 02:28:25;;;;;;;5.43;3.20;;;15.20;99.90;;;14.13;100.00;101117.72;4951392;28;20064;-77
2021/08/01 02:30:54;;;;;;;10.35;2.78;;;15.20;99.90;;;14.12;100.00;101196.31;4985751;28;20115;-77
2021/08/01 02:33:26;;;;;;;6.30;3.10;;;15.20;99.90;;;14.13;100.00;101186.56;5002667;28;20093;-77
2021/08/01 02:35:59;;;;;;;9.20;3.50;;;15.20;99.90;;;14.13;100.00;101207.75;4973029;28;20065;-77
2021/08/01 02:38:27;;;;;;;11.25;3.15;;;15.30;99.90;;;14.21;100.00;101314.13;4988233;28;20061;-76
2021/08/01 02:40:56;;;;;;;3.80;2.95;;;15.30;99.90;;;14.21;100.00;101186.13;4964384;28;20488;-77
2021/08/01 02:43:29;;;;;;;6.55;3.00;;;15.30;99.90;;;14.18;100.00;101170.41;5003741;28;20061;-76
2021/08/01 02:45:56;;;;;;;9.77;2.83;;;15.30;99.90;;;14.18;100.00;101150.06;4968477;28;20163;-77
2021/08/01 02:48:25;;;;;;;6.72;3.22;;;15.30;99.90;;;14.19;100.00;101150.91;4984277;28;20049;-77
2021/08/01 02:51:04;;;;;;;6.45;2.92;;;15.30;99.90;;;14.21;100.00;101155.22;4986772;28;20031;-77
2021/08/01 02:53:39;;;;;;;12.35;3.15;;;15.30;99.90;;;14.23;100.00;101173.66;4971733;28;20023;-77
2021/08/01 02:56:08;;;;;;;7.35;3.30;;;15.30;99.90;;;14.27;100.00;101161.97;4988213;28;20463;-77
2021/08/01 02:58:35;;;;;;;7.88;3.28;;;15.40;99.90;;;14.25;100.00;101138.19;4954062;28;20083;-77
2021/08/01 03:01:02;;;;;;;5.80;3.30;;;15.30;99.90;;;14.23;100.00;101133.94;4964508;28;20072;-77
2021/08/01 03:03:29;;;;;;;10.52;2.80;;;15.30;99.90;;;14.22;100.00;101154.28;4964233;28;20468;-77
2021/08/01 03:05:56;;;;;;;5.40;3.25;;;15.30;99.90;;;14.21;100.00;101149.03;4972833;28;20101;-77
2021/08/01 03:08:22;;;;;;;6.50;3.15;;;15.30;99.90;;;14.16;100.00;101126.31;4951115;28;20421;-77
2021/08/01 03:10:49;;;;;;;8.75;3.22;;;15.20;99.90;;;14.09;100.00;101122.31;5008875;28;20091;-77
2021/08/01 03:13:15;;;;;;;6.05;2.80;;;15.10;99.90;;;14.02;100.00;101099.75;4966252;28;20584;-77
2021/08/01 03:15:44;;;;;;;10.43;3.08;;;15.10;99.90;;;14.01;100.00;101100.69;4953715;28;20030;-77
2021/08/01 03:18:11;;;;;;;4.68;3.00;;;15.00;99.90;;;13.89;100.00;101080.19;4972226;28;20309;-77
2021/08/01 03:20:38;;;;;;;7.68;3.53;;;14.90;99.90;;;13.78;100.00;101091.38;4939417;28;20055;-77
2021/08/01 03:23:04;;;;;;;8.65;3.25;;;14.90;99.90;;;13.72;100.00;101075.81;4953037;28;20565;-77
2021/08/01 03:25:29;;;;;;;6.95;3.28;;;14.80;99.90;;;13.67;100.00;101068.13;4966430;28;20067;-74
2021/08/01 03:27:55;;;;;;;13.90;3.80;;;14.80;99.90;;;13.59;100.00;101049.16;4969634;28;20049;-77
2021/08/01 03:30:22;;;;;;;10.70;3.95;;;14.70;99.90;;;13.51;100.00;101052.22;4973749;28;20391;-76
2021/08/01 03:32:48;;;;;;;6.32;3.40;;;14.70;99.90;;;13.48;100.00;101059.47;4935270;28;20072;-77
2021/08/01 03:35:14;;;;;;;9.07;3.85;;;14.60;99.90;;;13.46;100.00;101053.41;4953324;28;20121;-77
2021/08/01 03:37:39;;;;;;;7.15;3.55;;;14.60;99.90;;;13.45;100.00;101071.06;4929326;28;20685;-77
2021/08/01 03:40:07;;;;;;;6.05;3.40;;;14.60;99.90;;;13.47;100.00;101076.28;4954434;28;20231;-76
2021/08/01 03:42:33;;;;;;;6.53;3.35;;;14.60;99.90;;;13.42;100.00;101073.88;4945484;28;20620;-76
2021/08/01 03:44:59;;;;;;;12.93;4.07;;;14.60;99.90;;;13.48;100.00;101083.28;4949486;28;20069;-77
2021/08/01 03:47:25;;;;;;;8.95;3.70;;;14.60;99.90;;;13.45;100.00;101092.22;4967676;28;20546;-76
2021/08/01 03:49:51;;;;;;;5.57;3.92;;;14.60;99.90;;;13.49;100.00;101090.28;4950154;28;20061;-76
2021/08/01 03:52:17;;;;;;;7.93;3.92;;;14.60;99.90;;;13.53;100.00;101084.72;4952735;28;20061;-76
2021/08/01 03:54:44;;;;;;;13.13;4.00;;;14.70;99.90;;;13.57;100.00;101080.16;4966572;28;20156;-77
2021/08/01 03:57:13;;;;;;;5.88;3.55;;;14.70;99.90;;;13.68;100.00;101096.28;4942994;28;20053;-77
2021/08/01 03:59:39;;;;;;;8.57;3.35;;;14.80;99.90;;;13.68;100.00;101088.34;4982569;28;24883;-77
2021/08/01 04:02:05;;;;;;;8.65;4.00;;;14.80;99.90;;;13.71;100.00;101093.50;4966738;28;20067;-76
2021/08/01 04:04:31;;;;;;;6.78;3.65;;;14.80;99.90;;;13.74;100.00;101106.56;4980336;28;20115;-78
2021/08/01 04:06:57;;;;;;;7.43;4.10;;;14.80;99.90;;;13.82;100.00;101115.84;4977637;28;20054;-77
2021/08/01 04:09:23;;;;;;;8.05;3.80;;;14.90;99.90;;;13.88;100.00;101102.28;4986873;28;20462;-78
2021/08/01 04:11:49;;;;;;;5.22;3.47;;;15.00;99.90;;;13.91;100.00;101118.03;4987340;28;20528;-77
2021/08/01 04:14:15;;;;;;;11.25;4.10;;;15.00;99.90;;;13.96;100.00;101142.44;4965704;28;20027;-77
2021/08/01 04:16:41;;;;;;;9.18;3.97;;;15.10;99.90;;;14.05;100.00;101141.09;4970833;28;20030;-78
2021/08/01 04:19:15;;;;;;;7.95;4.05;;;15.20;99.90;;;14.16;100.00;101166.03;5002253;28;20307;-77
2021/08/01 04:21:42;;;;;;;13.90;3.42;;;15.20;99.90;;;14.18;100.00;101220.72;5012084;28;20080;-77
2021/08/01 04:24:08;;;;;;;9.75;3.83;;;15.20;99.90;;;14.12;100.00;101249.25;4994286;28;20052;-77
2021/08/01 04:26:36;;;;;;;10.48;4.00;;;15.20;99.90;;;14.10;100.00;101301.44;4973230;28;20129;-77
2021/08/01 04:29:03;;;;;;;9.23;3.90;;;15.40;99.90;;;14.48;100.00;101329.50;4969763;28;20099;-76
2021/08/01 04:31:29;;;;;;;9.02;3.72;;;15.90;99.90;;;15.09;100.00;101323.50;4973406;28;20042;-78
2021/08/01 04:33:56;;;;;;;8.23;3.65;;;16.40;99.90;;;15.57;98.18;101326.09;4979692;28;20038;-77
2021/08/01 04:36:22;;;;;;;5.85;3.10;;;16.60;99.90;;;15.65;96.89;101310.59;4970294;28;20386;-76
2021/08/01 04:38:48;;;;;;;10.93;3.63;;;16.70;99.90;;;15.93;95.30;101327.59;4954994;28;20030;-76
2021/08/01 04:41:14;;;;;;;11.23;2.80;;;17.20;99.90;;;16.37;92.64;101361.22;4976963;28;20027;-77
2021/08/01 04:43:40;;;;;;;6.78;2.78;;;17.50;99.90;;;16.69;90.56;101390.31;4974591;28;20062;-77
2021/08/01 04:46:06;;;;;;;8.23;2.60;;;17.80;99.90;;;17.06;88.84;101396.03;4972493;28;20047;-77
2021/08/01 04:48:32;;;;;;;8.57;2.25;;;18.30;99.90;;;17.60;86.16;101423.59;4962043;28;20041;-77
2021/08/01 04:51:01;;;;;;;4.65;2.50;;;18.30;99.90;;;17.28;86.43;101355.59;4954487;28;20033;-77
2021/08/01 04:53:27;;;;;;;8.98;2.47;;;17.90;99.90;;;16.69;89.54;101302.56;4985616;28;20041;-77
2021/08/01 04:55:53;;;;;;;4.57;2.67;;;17.40;99.90;;;16.22;92.08;101242.59;4954559;28;20070;-77
2021/08/01 04:58:19;;;;;;;4.32;2.75;;;17.00;99.90;;;15.92;94.68;101219.66;4969015;28;20041;-77
2021/08/01 05:00:45;;;;;;;7.63;2.70;;;16.70;99.90;;;15.74;96.45;101200.38;4968870;28;20490;-77
2021/08/01 05:03:11;;;;;;;4.57;2.95;;;16.70;99.90;;;15.58;97.02;101203.91;5011611;28;20122;-77
2021/08/01 05:05:40;;;;;;;6.90;3.33;;;16.50;99.90;;;15.45;97.46;101192.34;4951641;28;20069;-77
2021/08/01 05:08:06;;;;;;;7.95;3.15;;;16.50;99.90;;;15.45;98.03;101175.56;4950539;28;20495;-77
2021/08/01 05:10:32;;;;;;;6.97;3.08;;;16.40;99.90;;;15.41;98.63;101206.72;4958545;28;20027;-77
2021/08/01 05:12:59;;;;;;;9.07;3.63;;;16.40;99.90;;;15.35;98.27;101178.75;4954067;28;20070;-77
2021/08/01 05:15:25;;;;;;;4.90;2.90;;;16.40;99.90;;;15.35;98.66;101178.75;4966113;28;20030;-76
2021/08/01 05:17:51;;;;;;;5.60;4.00;;;16.30;99.90;;;15.33;98.47;101166.53;4951683;28;20152;-77
2021/08/01 05:20:20;;;;;;;8.00;3.72;;;16.40;99.90;;;15.36;98.12;101166.34;4969194;28;20414;-77
2021/08/01 05:22:46;;;;;;;8.90;3.20;;;16.40;99.90;;;15.47;98.05;101178.97;4987475;28;20057;-77
2021/08/01 05:25:12;;;;;;;9.38;3.47;;;16.50;99.90;;;15.55;97.44;101205.91;4970232;28;20030;-77
2021/08/01 05:27:38;;;;;;;6.57;3.50;;;16.50;99.90;;;15.51;97.28;101184.00;4954237;28;20046;-76
2021/08/01 05:30:04;;;;;;;8.73;4.80;;;16.50;99.90;;;15.52;96.80;101176.91;4939127;28;20086;-77
2021/08/01 05:32:34;;;;;;;10.77;3.80;;;16.60;99.90;;;15.61;96.33;101173.69;4954009;28;20423;-76
2021/08/01 05:35:00;;;;;;;8.05;3.40;;;16.70;99.90;;;15.74;96.23;101173.81;5001273;28;20038;-76
2021/08/01 05:37:26;;;;;;;5.97;3.35;;;16.70;99.90;;;15.83;95.30;101177.72;4971430;28;20019;-77
2021/08/01 05:39:52;;;;;;;9.60;3.38;;;16.90;99.90;;;15.98;94.04;101195.34;4954515;28;20035;-77
2021/08/01 05:42:18;;;;;;;4.97;3.30;;;17.00;99.90;;;16.02;93.20;101220.78;4953566;28;20113;-77
2021/08/01 05:44:44;;;;;;;5.97;3.17;;;17.00;99.90;;;16.08;92.34;101209.78;4938690;28;20038;-77
2021/08/01 05:47:10;;;;;;;7.38;3.03;;;17.10;99.90;;;16.16;93.12;101211.97;4952470;28;20530;-77
2021/08/01 05:49:37;;;;;;;5.93;3.20;;;17.20;99.90;;;16.31;91.98;101210.16;4954993;28;20397;-77
2021/08/01 05:52:03;;;;;;;6.22;2.78;;;17.50;99.90;;;16.76;90.32;101248.91;4949753;28;20551;-77
2021/08/01 05:54:29;;;;;;;7.38;2.83;;;17.90;99.90;;;17.28;86.96;101289.94;4967455;28;20479;-77
2021/08/01 05:56:55;;;;;;;4.25;2.50;;;18.40;99.90;;;17.55;83.58;101299.69;4956355;28;20894;-77
2021/08/01 05:59:21;;;;;;;7.93;2.65;;;18.30;99.90;;;17.67;83.58;101311.31;4956133;28;20019;-77
2021/08/01 06:01:47;;;;;;;5.70;2.35;;;18.70;99.90;;;18.63;81.21;101389.16;4954716;28;20030;-74
2021/08/01 06:04:15;;;;;;;5.93;2.15;;;19.70;99.90;;;19.37;76.06;101382.13;4940011;28;20038;-75
2021/08/01 06:06:41;;;;;;;3.97;2.08;;;20.20;99.90;;;19.71;73.42;101269.25;4971600;28;20047;-76
2021/08/01 06:09:07;;;;;;;5.15;2.05;;;20.30;99.90;;;19.97;72.78;101294.78;4957291;28;20094;-75
2021/08/01 06:11:33;;;;;;;3.97;2.42;;;20.60;99.90;;;20.18;71.23;101219.25;4971275;28;20054;-75
2021/08/01 06:13:59;;;;;;;2.58;1.83;;;21.10;99.90;;;20.68;69.00;101179.56;4982673;28;20023;-75
2021/08/01 06:16:26;;;;;;;4.25;2.22;;;21.00;99.90;;;20.07;70.00;101122.03;4973478;28;20052;-75
2021/08/01 06:18:52;;;;;;;3.08;2.20;;;20.50;99.90;;;19.57;72.33;101123.38;4988659;28;20093;-75
2021/08/01 06:21:20;;;;;;;6.00;2.45;;;20.20;99.90;;;19.23;72.81;101110.81;4989068;28;20050;-76
2021/08/01 06:23:52;;;;;;;5.03;2.88;;;19.40;99.90;;;18.27;76.43;101035.38;4988633;28;20110;-75
2021/08/01 06:26:20;;;;;;;6.00;3.28;;;18.80;99.90;;;17.81;79.09;101015.59;4972629;28;20192;-75
2021/08/01 06:28:48;;;;;;;4.10;3.05;;;18.50;99.90;;;17.56;80.36;100987.22;4988030;28;20439;-76
2021/08/01 06:31:15;;;;;;;5.03;2.78;;;18.50;99.90;;;17.99;80.26;101042.72;4955559;28;20525;-77
2021/08/01 06:33:42;;;;;;;7.97;2.92;;;19.50;99.90;;;19.27;74.26;101143.47;4962916;28;20537;-77
2021/08/01 06:36:15;;;;;;;6.60;2.60;;;19.90;99.90;;;19.20;72.96;101123.53;4974036;28;20031;-77
2021/08/01 06:38:44;;;;;;;6.80;2.47;;;20.00;99.90;;;19.41;72.09;101134.38;5003329;28;20148;-77
2021/08/01 06:41:10;;;;;;;3.35;2.45;;;20.00;99.90;;;19.29;72.26;101120.16;4989797;28;20112;-77
2021/08/01 06:43:37;;;;;;;5.15;2.60;;;19.70;99.90;;;18.81;74.08;101057.09;4984826;28;20022;-77
2021/08/01 06:46:04;;;;;;;5.47;2.33;;;19.40;99.90;;;18.68;74.53;101060.75;4992827;28;20042;-77
2021/08/01 06:48:31;;;;;;;4.97;2.28;;;19.50;99.90;;;18.81;74.58;101067.75;4981389;28;20026;-76
2021/08/01 06:51:01;;;;;;;4.18;2.05;;;19.40;99.90;;;18.59;74.03;101041.81;4955651;28;20037;-77
2021/08/01 06:53:28;;;;;;;3.72;2.28;;;19.30;99.90;;;18.54;74.64;101038.66;4971770;28;20027;-77
2021/08/01 06:55:55;;;;;;;2.17;1.70;;;19.10;99.90;;;18.19;75.14;101015.47;4951735;28;20065;-76
2021/08/01 06:58:21;;;;;;;3.83;1.88;;;19.20;99.90;;;18.54;74.25;101054.66;4983102;28;20034;-76
2021/08/01 07:00:51;;;;;;;8.45;2.00;;;19.20;99.90;;;18.48;73.58;101033.78;4985530;28;20084;-77
2021/08/01 07:03:18;;;;;;;4.57;1.50;;;19.60;99.90;;;19.39;71.18;101131.81;4935466;28;20027;-76
2021/08/01 07:05:45;;;;;;;4.88;1.90;;;20.00;99.90;;;19.45;69.86;101029.03;4984441;28;20043;-77
2021/08/01 07:08:11;;;;;;;5.07;2.20;;;20.00;99.90;;;19.24;70.33;101083.16;4982166;28;20019;-77
2021/08/01 07:10:38;;;;;;;2.97;1.80;;;19.80;99.90;;;18.99;71.42;101057.50;4976472;28;20019;-76
2021/08/01 07:13:06;;;;;;;2.13;1.90;;;19.70;99.90;;;19.03;71.92;101060.78;4977396;28;20031;-77
2021/08/01 07:15:33;;;;;;;2.53;1.70;;;19.80;99.90;;;19.03;71.90;101037.63;4987385;28;20018;-77
2021/08/01 07:18:00;;;;;;;7.18;1.80;;;19.70;99.90;;;18.83;72.90;101033.81;4972422;28;20474;-77
2021/08/01 07:20:28;;;;;;;8.52;1.52;;;19.40;99.90;;;18.51;73.21;101003.34;4956906;28;20092;-76
2021/08/01 07:22:55;;;;;;;3.67;1.90;;;19.40;99.90;;;18.77;73.71;101052.09;4939528;28;20030;-76
2021/08/01 07:25:25;;;;;;;2.55;1.52;;;19.70;99.90;;;19.08;72.92;101071.09;4993884;28;20076;-77
2021/08/01 07:27:53;;;;;;;2.55;1.52;;;20.90;99.90;;;21.35;64.03;101241.88;4981761;28;20133;-77
2021/08/01 07:30:20;;;;;;;2.05;1.33;;;22.10;99.90;;;22.52;59.94;101243.41;4991554;28;20042;-78
2021/08/01 07:32:46;;;;;;;1.85;1.13;;;22.70;99.90;;;23.13;59.19;101313.13;4969712;28;20157;-77
2021/08/01 07:35:13;;;;;;;1.77;1.10;;;22.70;99.90;;;22.03;58.28;101141.31;4972870;28;20511;-77
2021/08/01 07:37:39;;;;;;;2.10;1.30;;;21.50;99.90;;;20.27;64.06;100991.25;5003383;28;20050;-76
2021/08/01 07:40:07;;;;;;;3.50;1.30;;;20.30;99.90;;;19.14;68.11;100916.69;4988002;28;20437;-77
2021/08/01 07:42:33;;;;;;;2.88;1.73;;;19.70;99.90;;;18.99;69.67;100929.41;4993546;28;20143;-77
2021/08/01 07:45:03;;;;;;;2.83;1.45;;;20.10;99.90;;;19.73;67.54;101000.16;4986822;28;20034;-75
2021/08/01 07:47:35;;;;;;;2.13;1.38;;;20.60;99.90;;;20.37;64.36;101053.69;4970508;28;20046;-75
2021/08/01 07:50:06;;;;;;;2.10;1.17;;;21.60;99.90;;;22.01;60.69;101182.63;4984917;28;20027;-74
2021/08/01 07:52:33;;;;;;;4.22;1.25;;;21.80;99.90;;;21.24;60.61;101068.72;4979868;28;20022;-75
2021/08/01 07:55:00;;;;;;;3.33;1.58;;;21.60;99.90;;;20.92;62.09;101031.31;4940917;28;20033;-75
2021/08/01 07:57:33;;;;;;;2.55;1.33;;;21.00;99.90;;;20.06;65.04;100956.44;4935186;28;20058;-75
2021/08/01 08:00:04;;;;;;;2.53;1.40;;;20.80;99.90;;;20.03;67.86;100962.06;4965841;28;20023;-74
2021/08/01 08:02:30;;;;;;;1.45;1.13;;;20.80;99.90;;;19.83;66.70;100936.97;4982497;28;20039;-75
2021/08/01 08:04:56;;;;;;;2.83;0.90;;;20.60;99.90;;;19.59;67.68;100879.22;4950584;28;20022;-75
2021/08/01 08:07:22;;;;;;;1.48;0.93;;;20.40;99.90;;;19.17;69.83;100905.75;4970831;28;20069;-74
2021/08/01 08:09:49;;;;;;;2.88;1.10;;;20.20;99.90;;;19.03;70.36;100895.34;4978069;28;20033;-75
2021/08/01 08:12:17;;;;;;;2.13;1.00;;;19.70;99.90;;;18.64;71.24;100906.31;4986116;28;20180;-75
2021/08/01 08:14:44;;;;;;;1.23;1.00;;;19.40;99.90;;;18.43;72.07;100891.97;4975930;28;20435;-74
2021/08/01 08:17:10;;;;;;;1.98;0.93;;;19.30;99.90;;;18.44;72.64;100909.66;4977495;28;20041;-74
2021/08/01 08:19:38;;;;;;;1.85;1.30;;;19.30;99.90;;;18.35;73.01;100897.88;4977728;28;20030;-75
2021/08/01 08:22:05;;;;;;;2.50;1.40;;;19.10;99.90;;;18.09;74.10;100859.91;4969619;28;20048;-75
2021/08/01 08:24:31;;;;;;;3.47;1.20;;;18.90;99.90;;;18.00;75.62;100866.78;4986924;28;20030;-75
2021/08/01 08:26:57;;;;;;;4.85;1.60;;;18.90;99.90;;;18.07;76.15;100896.47;4986633;28;20387;-74
2021/08/01 08:29:23;;;;;;;2.15;1.58;;;18.90;99.90;;;17.87;76.78;100862.50;4968382;28;20041;-77
2021/08/01 08:31:52;;;;;;;2.40;1.70;;;18.70;99.90;;;17.64;78.46;100843.72;4970910;28;20463;-77
2021/08/01 08:34:20;;;;;;;2.00;1.55;;;18.50;99.90;;;17.59;79.38;100844.06;4950758;28;20054;-77
2021/08/01 08:36:47;;;;;;;2.60;1.52;;;18.60;99.90;;;17.75;78.75;100867.75;4965770;28;20061;-76
2021/08/01 08:39:15;;;;;;;1.23;1.13;;;18.60;99.90;;;17.76;78.52;100857.94;4972470;28;20042;-77
2021/08/01 08:41:41;;;;;;;4.50;1.55;;;18.50;99.90;;;17.60;79.36;100844.91;4967487;28;22679;-77
2021/08/01 08:44:07;;;;;;;1.50;1.27;;;18.60;99.90;;;17.71;79.70;100866.28;4950053;28;20502;-77
2021/08/01 08:46:38;;;;;;;6.60;1.67;;;18.70;99.90;;;17.96;79.18;100886.63;4959005;28;20479;-77
2021/08/01 08:49:13;;;;;;;1.75;1.42;;;19.10;99.90;;;18.59;77.61;100937.81;4974199;28;20030;-76
2021/08/01 08:51:46;;;;;;;2.35;1.50;;;19.70;99.90;;;19.30;75.54;100992.88;4981611;28;20513;-76
2021/08/01 08:54:49;;;;;;;4.75;2.72;;;20.10;99.90;;;19.22;72.48;100964.09;4970412;28;20030;-76
2021/08/01 08:57:29;;;;;;;2.20;1.40;;;20.20;99.90;;;19.24;74.19;100970.16;4981600;28;20118;-76
2021/08/01 09:00:13;;;;;;;3.97;1.40;;;20.30;99.90;;;19.21;73.01;100955.25;4945966;28;20066;-76
2021/08/01 09:02:40;;;;;;;2.25;1.30;;;20.00;99.90;;;19.26;75.10;100944.19;4979939;28;20037;-76
2021/08/01 09:05:10;;;;;;;2.15;1.35;;;20.40;99.90;;;19.76;72.83;100987.41;4964787;28;20215;-77
2021/08/01 09:07:39;;;;;;;1.95;1.25;;;20.70;99.90;;;20.01;69.49;101004.09;4929296;28;20129;-77
2021/08/01 09:10:30;;;;;;;1.98;1.30;;;20.70;99.90;;;19.82;69.81;100978.84;4926111;28;20117;-77
2021/08/01 09:12:58;;;;;;;3.80;1.40;;;20.50;99.90;;;19.67;70.49;100958.69;4959690;28;20030;-76
2021/08/01 09:15:31;;;;;;;4.32;1.38;;;20.20;99.90;;;19.18;71.85;100911.91;4944633;28;20383;-77
2021/08/01 09:18:19;;;;;;;2.15;1.30;;;19.10;99.90;;;16.95;83.85;100784.91;4934343;28;20135;-76
2021/08/01 09:21:31;;;;;;;54.70;2.25;;;17.60;99.90;;;15.54;93.40;100745.06;4944535;28;20034;-76
2021/08/01 09:24:01;;;;;;;3.25;1.10;;;16.90;99.90;;;15.32;97.45;100790.75;4975193;28;20050;-76
2021/08/01 09:26:58;;;;;;;3.05;1.08;;;16.60;99.90;;;15.02;99.80;100764.44;4933535;28;20100;-77
2021/08/01 09:29:24;;;;;;;4.32;1.30;;;16.30;99.90;;;14.98;100.00;100774.38;4946759;28;20402;-78
2021/08/01 09:32:03;;;;;;;1.45;1.02;;;16.20;99.90;;;14.96;100.00;100778.91;4958239;28;20493;-77
2021/08/01 09:34:29;;;;;;;2.10;1.50;;;16.20;99.90;;;15.02;100.00;100799.75;4912027;28;20069;-77
2021/08/01 09:37:03;;;;;;;3.65;1.70;;;16.30;99.90;;;15.26;100.00;100812.38;4966569;28;20078;-77
2021/08/01 09:39:43;;;;;;;7.65;1.80;;;16.40;99.90;;;15.32;100.00;100818.13;4920010;28;20045;-77
2021/08/01 09:42:11;;;;;;;1.85;1.55;;;16.60;99.90;;;15.44;100.00;100836.84;4968304;28;20030;-77
2021/08/01 09:44:40;;;;;;;5.93;1.83;;;16.60;99.90;;;15.48;100.00;100841.00;4951872;28;20050;-78
2021/08/01 09:47:21;;;;;;;4.57;2.00;;;16.60;99.90;;;15.33;100.00;100822.50;4978105;28;20474;-77
2021/08/01 09:50:09;;;;;;;2.70;1.85;;;16.70;99.90;;;15.62;100.00;100866.66;4914224;28;20050;-77
2021/08/01 09:52:35;;;;;;;4.78;2.00;;;16.90;99.90;;;15.99;100.00;100889.84;4966830;28;20030;-77
2021/08/01 09:55:02;;;;;;;4.13;2.10;;;17.30;99.90;;;16.48;100.00;100914.91;4955307;28;20121;-79
2021/08/01 09:57:29;;;;;;;6.38;2.45;;;17.50;99.90;;;16.53;98.89;100891.53;4925975;28;20446;-77
2021/08/01 10:00:23;;;;;;;9.18;2.42;;;17.80;99.90;;;16.77;96.99;100909.38;4947231;28;20062;-77
2021/08/01 10:03:02;;;;;;;3.92;1.58;;;18.00;99.90;;;17.36;94.99;100951.38;4955364;28;20038;-78
2021/08/01 10:05:31;;;;;;;4.30;1.65;;;18.50;99.90;;;17.79;94.13;100978.41;4935967;28;20026;-77
2021/08/01 10:08:11;;;;;;;1.63;1.10;;;18.70;99.90;;;17.49;90.42;100920.25;4919028;28;20053;-76
2021/08/01 10:11:13;;;;;;;12.25;1.50;;;18.80;99.90;;;18.09;91.19;100963.81;4941386;28;20061;-78
2021/08/01 10:13:41;;;;;;;3.05;1.00;;;19.50;99.90;;;19.02;86.15;101025.22;4970176;28;20590;-78
2021/08/01 10:16:10;;;;;;;3.50;1.10;;;20.10;99.90;;;19.66;82.19;101069.22;4927976;28;21056;-77
2021/08/01 10:18:43;;;;;;;3.50;1.20;;;20.60;99.90;;;20.06;79.49;101156.91;4949652;28;20177;-78